Time;durP1;ratioP1;P1;durP2;ratioP2;P2;SDS_P1;SDS_P2;PMS_P1;PMS_P2;Temp;Humidity;BMP_temperature;BMP_pressure;BME280_temperature;BME280_humidity;BME280_pressure;Samples;Min_cycle;Max_cycle;Signal;HPM_P1;HPM_P2
2021/11/20 00:00:19;;;;;;;17.07;9.00;;;10.40;99.90;;;;;;4156243;28;20227;-78
2021/11/20 00:02:27;;;;;;;16.43;8.67;;;10.40;99.90;;;;;;4155089;28;20225;-76
2021/11/20 00:04:29;;;;;;;13.43;8.73;;;10.40;99.90;;;;;;4151884;28;20278;-78
2021/11/20 00:06:34;;;;;;;17.73;9.07;;;10.40;99.90;;;;;;4160157;28;20272;-77
2021/11/20 00:08:36;;;;;;;16.93;9.77;;;10.40;99.90;;;;;;4166940;28;20232;-80
2021/11/20 00:10:41;;;;;;;23.67;15.00;;;10.30;99.90;;;;;;4157039;28;20300;-80
2021/11/20 00:12:44;;;;;;;30.30;18.27;;;10.40;99.90;;;;;;4162037;28;20238;-77
2021/11/20 00:14:49;;;;;;;18.33;11.27;;;10.30;99.90;;;;;;4167684;28;20736;-78
2021/11/20 00:16:52;;;;;;;18.33;9.60;;;10.30;99.90;;;;;;4164169;28;20294;-78
2021/11/20 00:18:55;;;;;;;17.87;10.13;;;10.30;99.90;;;;;;4160648;28;20323;-79
2021/11/20 00:21:00;;;;;;;14.67;8.50;;;10.40;99.90;;;;;;4162083;28;20630;-78
2021/11/20 00:23:03;;;;;;;16.27;8.53;;;10.40;99.90;;;;;;4159634;28;20306;-77
2021/11/20 00:25:09;;;;;;;16.67;8.73;;;10.30;99.90;;;;;;4165951;28;20294;-77
2021/11/20 00:27:16;;;;;;;18.33;8.40;;;10.40;99.90;;;;;;4163306;28;20249;-78
2021/11/20 00:29:21;;;;;;;14.67;8.07;;;10.30;99.90;;;;;;4162563;28;20285;-77
2021/11/20 00:31:26;;;;;;;15.30;8.37;;;10.30;99.90;;;;;;4168182;28;20255;-77
2021/11/20 00:33:30;;;;;;;16.47;8.97;;;10.30;99.90;;;;;;4173117;28;20395;-75
2021/11/20 00:35:36;;;;;;;14.10;8.70;;;10.30;99.90;;;;;;4161787;28;20212;-77
2021/11/20 00:37:39;;;;;;;16.50;8.67;;;10.30;99.90;;;;;;4156270;28;20657;-77
2021/11/20 00:39:41;;;;;;;17.20;9.00;;;10.30;99.90;;;;;;4160632;28;20236;-75
2021/11/20 00:41:44;;;;;;;16.40;8.77;;;10.30;99.90;;;;;;4156237;28;20237;-75
2021/11/20 00:43:47;;;;;;;16.90;9.30;;;10.30;99.90;;;;;;4152921;28;20303;-75
2021/11/20 00:45:49;;;;;;;15.80;9.03;;;10.30;99.90;;;;;;4162655;28;20618;-78
2021/11/20 00:47:53;;;;;;;14.57;8.80;;;10.20;99.90;;;;;;4161525;28;20207;-74
2021/11/20 00:49:57;;;;;;;15.73;8.87;;;10.20;99.90;;;;;;4164276;28;20714;-75
2021/11/20 00:52:00;;;;;;;15.63;8.83;;;10.30;99.90;;;;;;4150460;28;20915;-77
2021/11/20 00:54:03;;;;;;;15.77;8.50;;;10.20;99.90;;;;;;4161297;28;20255;-77
2021/11/20 00:56:06;;;;;;;18.17;9.90;;;10.30;99.90;;;;;;4149000;28;20740;-77
2021/11/20 00:58:08;;;;;;;17.03;9.73;;;10.20;99.90;;;;;;4156656;28;20243;-77
2021/11/20 01:00:14;;;;;;;16.43;10.03;;;10.20;99.90;;;;;;4158284;28;20321;-77
2021/11/20 01:02:16;;;;;;;18.83;9.47;;;10.20;99.90;;;;;;4161409;28;20239;-76
2021/11/20 01:04:20;;;;;;;16.33;9.33;;;10.20;99.90;;;;;;4160445;28;20212;-77
2021/11/20 01:06:22;;;;;;;18.07;9.70;;;10.20;99.90;;;;;;4160104;28;20229;-77
2021/11/20 01:08:26;;;;;;;15.47;8.80;;;10.20;99.90;;;;;;4156126;28;20231;-76
2021/11/20 01:10:32;;;;;;;17.87;9.57;;;10.20;99.90;;;;;;4163027;28;20218;-77
2021/11/20 01:12:34;;;;;;;15.63;9.37;;;10.20;99.90;;;;;;4160323;28;20286;-76
2021/11/20 01:14:38;;;;;;;19.17;10.20;;;10.20;99.90;;;;;;4164039;28;20651;-76
2021/11/20 01:16:41;;;;;;;20.43;9.77;;;10.20;99.90;;;;;;4162488;28;20221;-77
2021/11/20 01:18:44;;;;;;;16.30;10.47;;;10.20;99.90;;;;;;4165379;28;20323;-78
2021/11/20 01:20:48;;;;;;;17.27;10.50;;;10.20;99.90;;;;;;4166484;28;21127;-78
2021/11/20 01:22:50;;;;;;;15.80;9.23;;;10.20;99.90;;;;;;4176961;28;20215;-76
2021/11/20 01:24:54;;;;;;;17.83;10.27;;;10.20;99.90;;;;;;4163477;28;20304;-77
2021/11/20 01:26:56;;;;;;;19.20;10.97;;;10.20;99.90;;;;;;4154197;28;20208;-78
2021/11/20 01:28:59;;;;;;;17.20;10.00;;;10.20;99.90;;;;;;4163166;28;20239;-78
2021/11/20 01:31:05;;;;;;;23.50;12.67;;;10.20;99.90;;;;;;4156674;28;20210;-77
2021/11/20 01:33:07;;;;;;;22.77;12.17;;;10.10;99.90;;;;;;4163319;28;20199;-77
2021/11/20 01:35:09;;;;;;;20.27;10.93;;;10.10;99.90;;;;;;4163551;28;20298;-78
2021/11/20 01:37:15;;;;;;;20.23;10.40;;;10.20;99.90;;;;;;4164919;28;20204;-79
2021/11/20 01:39:22;;;;;;;19.13;11.27;;;10.20;99.90;;;;;;4164655;28;20240;-77
2021/11/20 01:41:26;;;;;;;22.33;12.63;;;10.20;99.90;;;;;;4151504;28;20231;-78
2021/11/20 01:43:28;;;;;;;23.33;13.13;;;10.20;99.90;;;;;;4153261;28;20226;-78
2021/11/20 01:45:33;;;;;;;24.67;12.70;;;10.20;99.90;;;;;;4162044;28;20656;-79
2021/11/20 01:47:48;;;;;;;22.57;11.40;;;10.20;99.90;;;;;;4165721;28;20203;-78
2021/11/20 01:49:53;;;;;;;20.87;11.70;;;10.20;99.90;;;;;;4167702;28;20318;-79
2021/11/20 01:52:00;;;;;;;26.20;11.80;;;10.20;99.90;;;;;;4167834;28;20205;-75
2021/11/20 01:54:25;;;;;;;20.67;11.97;;;10.20;99.90;;;;;;4166431;28;20670;-75
2021/11/20 01:56:34;;;;;;;18.87;10.93;;;10.20;99.90;;;;;;4155381;28;20219;-76
2021/11/20 01:58:42;;;;;;;17.27;10.93;;;10.20;99.90;;;;;;4155100;28;20222;-75
2021/11/20 02:00:47;;;;;;;23.10;12.30;;;10.20;99.90;;;;;;4155012;28;20591;-78
2021/11/20 02:02:59;;;;;;;24.13;11.33;;;10.20;99.90;;;;;;4160211;28;20433;-78
2021/11/20 02:05:06;;;;;;;21.63;11.67;;;10.20;99.90;;;;;;4153791;28;20215;-75
2021/11/20 02:07:12;;;;;;;20.70;11.13;;;10.20;99.90;;;;;;4149961;28;20765;-75
2021/11/20 02:09:28;;;;;;;22.97;12.73;;;10.20;99.90;;;;;;4156679;28;20239;-76
2021/11/20 02:11:35;;;;;;;23.97;12.33;;;10.20;99.90;;;;;;4149720;28;20239;-77
2021/11/20 02:13:37;;;;;;;24.10;12.10;;;10.20;99.90;;;;;;4148954;28;20214;-77
2021/11/20 02:15:50;;;;;;;21.60;12.40;;;10.20;99.90;;;;;;4151914;28;20306;-77
2021/11/20 02:17:55;;;;;;;21.33;12.17;;;10.20;99.90;;;;;;4168394;28;20267;-78
2021/11/20 02:20:02;;;;;;;21.57;12.80;;;10.20;99.90;;;;;;4189172;23;20285;-80
2021/11/20 02:22:07;;;;;;;20.50;11.80;;;10.30;99.90;;;;;;4149947;28;20751;-81
2021/11/20 02:24:09;;;;;;;22.57;12.57;;;10.30;99.90;;;;;;4150597;28;20244;-81
2021/11/20 02:26:11;;;;;;;22.67;12.07;;;10.20;99.90;;;;;;4150303;28;20647;-82
2021/11/20 02:28:14;;;;;;;21.60;12.50;;;10.30;99.90;;;;;;4162188;28;20713;-84
2021/11/20 02:30:23;;;;;;;24.20;11.57;;;10.30;99.90;;;;;;4164995;28;20663;-81
2021/11/20 02:32:26;;;;;;;21.53;12.67;;;10.30;99.90;;;;;;4150784;28;20292;-80
2021/11/20 02:34:30;;;;;;;22.80;11.67;;;10.30;99.90;;;;;;4149199;28;20212;-80
2021/11/20 02:36:32;;;;;;;20.57;11.43;;;10.30;99.90;;;;;;4158165;28;20299;-81
2021/11/20 02:38:40;;;;;;;19.17;11.57;;;10.30;99.90;;;;;;4165602;28;20211;-81
2021/11/20 02:40:43;;;;;;;21.03;11.73;;;10.30;99.90;;;;;;4164129;28;20234;-80
2021/11/20 02:42:46;;;;;;;17.03;10.30;;;10.30;99.90;;;;;;4165953;28;20208;-80
2021/11/20 02:44:48;;;;;;;19.53;11.00;;;10.30;99.90;;;;;;4165733;28;20718;-82
2021/11/20 02:46:55;;;;;;;20.77;11.17;;;10.30;99.90;;;;;;4162233;28;20239;-82
2021/11/20 02:48:57;;;;;;;17.60;10.70;;;10.30;99.90;;;;;;4165150;28;20232;-82
2021/11/20 02:51:06;;;;;;;17.93;10.10;;;10.30;99.90;;;;;;4165580;28;20295;-82
2021/11/20 02:53:10;;;;;;;18.10;10.10;;;10.30;99.90;;;;;;4165457;28;20300;-82
2021/11/20 02:55:12;;;;;;;20.23;11.00;;;10.30;99.90;;;;;;4165388;28;20224;-82
2021/11/20 02:57:17;;;;;;;17.23;10.20;;;10.30;99.90;;;;;;4165072;28;20640;-82
2021/11/20 02:59:19;;;;;;;19.13;11.07;;;10.30;99.90;;;;;;4155508;28;20256;-82
2021/11/20 03:01:25;;;;;;;17.83;9.37;;;10.30;99.90;;;;;;4164248;28;20320;-81
2021/11/20 03:03:28;;;;;;;19.00;9.90;;;10.30;99.90;;;;;;4156528;28;20291;-82
2021/11/20 03:05:30;;;;;;;13.23;8.87;;;10.20;99.90;;;;;;4150127;28;20285;-83
2021/11/20 03:07:32;;;;;;;20.20;10.87;;;10.20;99.90;;;;;;4163997;28;20485;-83
2021/11/20 03:09:36;;;;;;;16.70;9.70;;;10.30;99.90;;;;;;4164241;28;20274;-85
2021/11/20 03:11:39;;;;;;;17.83;10.30;;;10.30;99.90;;;;;;4162920;28;20215;-83
2021/11/20 03:13:41;;;;;;;17.67;10.23;;;10.30;99.90;;;;;;4162071;28;20701;-82
2021/11/20 03:15:44;;;;;;;17.23;9.77;;;10.20;99.90;;;;;;4164437;28;20270;-82
2021/11/20 03:17:46;;;;;;;14.80;9.60;;;10.30;99.90;;;;;;4158559;28;20647;-82
2021/11/20 03:19:51;;;;;;;16.03;9.33;;;10.20;99.90;;;;;;4164321;28;20321;-81
2021/11/20 03:21:56;;;;;;;15.47;8.60;;;10.20;99.90;;;;;;4164071;28;20321;-82
2021/11/20 03:24:01;;;;;;;15.00;9.30;;;10.30;99.90;;;;;;4163150;28;20297;-81
2021/11/20 03:26:04;;;;;;;17.37;9.57;;;10.20;99.90;;;;;;4165025;28;20298;-82
2021/11/20 03:28:06;;;;;;;14.03;9.40;;;10.30;99.90;;;;;;4164095;28;20652;-81
2021/11/20 03:30:09;;;;;;;14.47;8.70;;;10.20;99.90;;;;;;4164813;28;20232;-82
2021/11/20 03:32:13;;;;;;;17.13;9.33;;;10.20;99.90;;;;;;4163229;28;20290;-82
2021/11/20 03:34:15;;;;;;;16.23;9.27;;;10.20;99.90;;;;;;4156081;28;20254;-81
2021/11/20 03:36:18;;;;;;;16.00;8.80;;;10.20;99.90;;;;;;4159108;28;20222;-82
2021/11/20 03:38:20;;;;;;;20.33;9.93;;;10.20;99.90;;;;;;4154746;28;20286;-82
2021/11/20 03:40:23;;;;;;;16.23;9.43;;;10.20;99.90;;;;;;4154339;28;20296;-82
2021/11/20 03:42:25;;;;;;;14.73;8.77;;;10.20;99.90;;;;;;4157111;28;20323;-81
2021/11/20 03:44:27;;;;;;;15.77;9.23;;;10.20;99.90;;;;;;4164073;28;20290;-82
2021/11/20 03:46:29;;;;;;;15.60;9.17;;;10.20;99.90;;;;;;4164986;28;20204;-82
2021/11/20 03:48:31;;;;;;;17.80;9.43;;;10.20;99.90;;;;;;4163258;28;20207;-81
2021/11/20 03:50:34;;;;;;;16.73;9.23;;;10.20;99.90;;;;;;4162135;28;20224;-81
2021/11/20 03:52:38;;;;;;;16.00;9.03;;;10.20;99.90;;;;;;4158328;28;20295;-83
2021/11/20 03:54:40;;;;;;;13.77;8.50;;;10.20;99.90;;;;;;4159355;28;20321;-83
2021/11/20 03:56:42;;;;;;;16.10;8.73;;;10.20;99.90;;;;;;4151823;28;20294;-82
2021/11/20 03:58:44;;;;;;;14.77;8.00;;;10.20;99.90;;;;;;4152310;28;20751;-83
2021/11/20 04:00:49;;;;;;;13.57;8.27;;;10.20;99.90;;;;;;4161225;28;20218;-82
2021/11/20 04:02:52;;;;;;;14.17;8.60;;;10.20;99.90;;;;;;4146567;28;20228;-81
2021/11/20 04:04:53;;;;;;;14.20;8.20;;;10.10;99.90;;;;;;4160544;28;20208;-82
2021/11/20 04:06:55;;;;;;;14.47;8.30;;;10.20;99.90;;;;;;4161905;28;20220;-82
2021/11/20 04:08:59;;;;;;;14.80;8.50;;;10.10;99.90;;;;;;4160551;28;20232;-82
2021/11/20 04:11:01;;;;;;;23.13;9.67;;;10.10;99.90;;;;;;4147846;28;20298;-82
2021/11/20 04:13:02;;;;;;;18.13;9.23;;;10.10;99.90;;;;;;4163468;28;20209;-83
2021/11/20 04:15:06;;;;;;;15.73;8.50;;;10.10;99.90;;;;;;4157783;28;20209;-81
2021/11/20 04:17:08;;;;;;;22.47;9.73;;;10.10;99.90;;;;;;4154330;28;20290;-82
2021/11/20 04:19:10;;;;;;;17.20;9.07;;;10.10;99.90;;;;;;4161485;28;20235;-81
2021/11/20 04:21:13;;;;;;;14.73;8.33;;;10.10;99.90;;;;;;4163911;28;20686;-82
2021/11/20 04:23:15;;;;;;;14.60;9.17;;;10.10;99.90;;;;;;4158247;28;20236;-82
2021/11/20 04:25:21;;;;;;;17.67;8.57;;;10.10;99.90;;;;;;4160552;28;20302;-82
2021/11/20 04:27:23;;;;;;;14.07;8.77;;;10.10;99.90;;;;;;4164354;28;20667;-82
2021/11/20 04:29:25;;;;;;;13.63;8.30;;;10.10;99.90;;;;;;4163841;28;20228;-83
2021/11/20 04:31:28;;;;;;;14.20;8.43;;;10.10;99.90;;;;;;4163890;28;20207;-83
2021/11/20 04:33:31;;;;;;;15.20;8.50;;;10.10;99.90;;;;;;4162177;28;20211;-82
2021/11/20 04:35:33;;;;;;;14.50;8.60;;;10.10;99.90;;;;;;4159691;28;20229;-82
2021/11/20 04:37:36;;;;;;;13.90;8.87;;;10.10;99.90;;;;;;4164074;28;20207;-83
2021/11/20 04:39:37;;;;;;;15.80;9.17;;;10.10;99.90;;;;;;4164008;28;20663;-83
2021/11/20 04:41:41;;;;;;;16.90;9.57;;;10.10;99.90;;;;;;4161886;28;20235;-82
2021/11/20 04:43:44;;;;;;;17.47;9.67;;;10.10;99.90;;;;;;4163778;28;20220;-82
2021/11/20 04:45:47;;;;;;;19.60;10.13;;;10.10;99.90;;;;;;4163952;28;20258;-83
2021/11/20 04:47:49;;;;;;;14.30;8.83;;;10.10;99.90;;;;;;4161726;28;20239;-82
2021/11/20 04:49:52;;;;;;;16.63;10.13;;;10.10;99.90;;;;;;4153843;28;20650;-82
2021/11/20 04:51:54;;;;;;;16.60;9.60;;;10.10;99.90;;;;;;4150561;28;20207;-82
2021/11/20 04:53:56;;;;;;;18.00;9.70;;;10.10;99.90;;;;;;4155896;28;20704;-82
2021/11/20 04:55:58;;;;;;;19.27;10.67;;;10.10;99.90;;;;;;4162340;28;20211;-83
2021/11/20 04:58:01;;;;;;;17.30;10.07;;;10.10;99.90;;;;;;4147616;28;20443;-82
2021/11/20 05:00:08;;;;;;;16.77;9.70;;;10.10;99.90;;;;;;4151360;28;20235;-82
2021/11/20 05:02:10;;;;;;;18.07;10.20;;;10.10;99.90;;;;;;4159808;28;20254;-82
2021/11/20 05:04:12;;;;;;;17.70;10.07;;;10.10;99.90;;;;;;4159881;28;20215;-82
2021/11/20 05:06:14;;;;;;;16.87;9.67;;;10.10;99.90;;;;;;4156655;28;20291;-82
2021/11/20 05:08:17;;;;;;;18.30;11.00;;;10.10;99.90;;;;;;4162253;28;20211;-82
2021/11/20 05:10:19;;;;;;;19.87;10.30;;;10.10;99.90;;;;;;4163348;28;20231;-82
2021/11/20 05:12:21;;;;;;;21.70;10.77;;;10.10;99.90;;;;;;4164091;28;20207;-82
2021/11/20 05:14:25;;;;;;;20.47;11.47;;;10.10;99.90;;;;;;4162777;28;20552;-82
2021/11/20 05:16:27;;;;;;;18.53;10.90;;;10.10;99.90;;;;;;4158881;28;20215;-82
2021/11/20 05:18:30;;;;;;;19.77;10.90;;;10.20;99.90;;;;;;4151048;28;20649;-81
2021/11/20 05:20:32;;;;;;;21.40;10.93;;;10.20;99.90;;;;;;4163645;28;20222;-82
2021/11/20 05:22:34;;;;;;;19.87;11.17;;;10.20;99.90;;;;;;4166872;28;20242;-81
2021/11/20 05:24:36;;;;;;;20.57;11.10;;;10.10;99.90;;;;;;4160070;28;20304;-82
2021/11/20 05:26:37;;;;;;;19.50;10.70;;;10.20;99.90;;;;;;4160685;28;20700;-83
2021/11/20 05:28:42;;;;;;;20.37;11.97;;;10.20;99.90;;;;;;4159852;28;20296;-83
2021/11/20 05:30:49;;;;;;;21.23;11.07;;;10.20;99.90;;;;;;4161201;28;20210;-82
2021/11/20 05:32:51;;;;;;;21.30;11.70;;;10.20;99.90;;;;;;4166864;28;20299;-82
2021/11/20 05:34:53;;;;;;;20.70;11.43;;;10.20;99.90;;;;;;4162698;28;20303;-82
2021/11/20 05:36:55;;;;;;;22.07;12.63;;;10.20;99.90;;;;;;4163901;28;20222;-83
2021/11/20 05:38:58;;;;;;;21.10;12.27;;;10.20;99.90;;;;;;4158877;28;20331;-82
2021/11/20 05:41:00;;;;;;;23.07;12.23;;;10.30;99.90;;;;;;4159307;28;20294;-82
2021/11/20 05:43:05;;;;;;;20.70;12.07;;;10.20;99.90;;;;;;4166253;28;20240;-82
2021/11/20 05:45:08;;;;;;;23.13;12.20;;;10.20;99.90;;;;;;4162867;28;20661;-83
2021/11/20 05:47:12;;;;;;;19.17;11.40;;;10.20;99.90;;;;;;4152968;28;20212;-82
2021/11/20 05:49:14;;;;;;;21.67;12.60;;;10.20;99.90;;;;;;4166245;28;20238;-82
2021/11/20 05:51:15;;;;;;;26.77;13.30;;;10.20;99.90;;;;;;4163571;28;20246;-82
2021/11/20 05:53:20;;;;;;;21.57;12.60;;;10.30;99.90;;;;;;4158706;28;20288;-83
2021/11/20 05:55:23;;;;;;;23.20;12.33;;;10.20;99.90;;;;;;4161325;28;20635;-82
2021/11/20 05:57:25;;;;;;;24.57;13.43;;;10.30;99.90;;;;;;4166744;28;20204;-83
2021/11/20 05:59:27;;;;;;;22.90;12.77;;;10.20;99.90;;;;;;4165906;28;20275;-83
2021/11/20 06:01:29;;;;;;;25.33;13.60;;;10.30;99.90;;;;;;4158114;28;20213;-82
2021/11/20 06:03:33;;;;;;;24.40;12.77;;;10.30;99.90;;;;;;4153466;28;20269;-82
2021/11/20 06:05:35;;;;;;;23.50;12.93;;;10.20;99.90;;;;;;4162747;28;20221;-82
2021/11/20 06:07:37;;;;;;;23.47;12.10;;;10.30;99.90;;;;;;4164005;28;20287;-82
2021/11/20 06:09:40;;;;;;;21.87;12.00;;;10.30;99.90;;;;;;4150076;28;20780;-82
2021/11/20 06:11:43;;;;;;;21.50;12.30;;;10.30;99.90;;;;;;4155007;28;20295;-83
2021/11/20 06:13:45;;;;;;;23.30;12.50;;;10.30;99.90;;;;;;4160425;28;20263;-82
2021/11/20 06:15:47;;;;;;;24.43;12.97;;;10.30;99.90;;;;;;4159349;28;20245;-83
2021/11/20 06:17:49;;;;;;;23.23;13.00;;;10.20;99.90;;;;;;4161221;28;20247;-83
2021/11/20 06:19:53;;;;;;;22.47;12.33;;;10.30;99.90;;;;;;4163891;28;20342;-84
2021/11/20 06:21:55;;;;;;;22.23;13.50;;;10.30;99.90;;;;;;4165811;28;20230;-82
2021/11/20 06:23:57;;;;;;;20.70;12.00;;;10.30;99.90;;;;;;4163195;28;20234;-82
2021/11/20 06:26:00;;;;;;;23.00;12.27;;;10.30;99.90;;;;;;4164838;28;20218;-82
2021/11/20 06:28:02;;;;;;;26.77;12.70;;;10.30;99.90;;;;;;4159868;28;20220;-84
2021/11/20 06:30:05;;;;;;;23.40;12.83;;;10.30;99.90;;;;;;4150658;28;20273;-85
2021/11/20 06:32:07;;;;;;;26.20;12.90;;;10.30;99.90;;;;;;4165499;28;20283;-84
2021/11/20 06:34:09;;;;;;;23.57;13.87;;;10.30;99.90;;;;;;4163874;28;20291;-84
2021/11/20 06:36:13;;;;;;;24.80;13.40;;;10.30;99.90;;;;;;4164814;28;20247;-84
2021/11/20 06:38:15;;;;;;;27.27;14.07;;;10.30;99.90;;;;;;4164591;28;20222;-84
2021/11/20 06:40:21;;;;;;;24.10;12.00;;;10.30;99.90;;;;;;4169436;28;20783;-84
2021/11/20 06:42:23;;;;;;;21.67;12.83;;;10.30;99.90;;;;;;4181102;28;20297;-84
2021/11/20 06:44:25;;;;;;;23.53;13.50;;;10.30;99.90;;;;;;4164321;28;20266;-84
2021/11/20 06:46:26;;;;;;;26.00;13.53;;;10.30;99.90;;;;;;4165332;28;20219;-84
2021/11/20 06:48:29;;;;;;;25.50;13.53;;;10.30;99.90;;;;;;4165202;28;20289;-84
2021/11/20 06:50:34;;;;;;;27.50;13.57;;;10.30;99.90;;;;;;4163960;28;20211;-84
2021/11/20 06:52:37;;;;;;;25.33;13.07;;;10.30;99.90;;;;;;4163587;28;20599;-84
2021/11/20 06:54:39;;;;;;;24.87;12.67;;;10.30;99.90;;;;;;4164788;28;20298;-84
2021/11/20 06:56:47;;;;;;;22.00;12.27;;;10.30;99.90;;;;;;4165926;28;20302;-84
2021/11/20 06:59:08;;;;;;;26.07;13.67;;;10.30;99.90;;;;;;4166115;28;20243;-84
2021/11/20 07:01:13;;;;;;;30.80;14.80;;;10.30;99.90;;;;;;4154322;28;20700;-84
2021/11/20 07:03:19;;;;;;;22.40;13.30;;;10.30;99.90;;;;;;4160981;28;20923;-81
2021/11/20 07:05:21;;;;;;;25.03;13.67;;;10.30;99.90;;;;;;4161111;28;20303;-81
2021/11/20 07:07:23;;;;;;;29.70;14.83;;;10.30;99.90;;;;;;4160817;28;20761;-82
2021/11/20 07:09:26;;;;;;;27.07;14.60;;;10.30;99.90;;;;;;4161833;28;20231;-82
2021/11/20 07:11:28;;;;;;;27.80;14.63;;;10.30;99.90;;;;;;4158442;28;20210;-82
2021/11/20 07:13:30;;;;;;;27.57;14.83;;;10.30;99.90;;;;;;4160245;28;20294;-82
2021/11/20 07:15:33;;;;;;;32.03;14.57;;;10.30;99.90;;;;;;4162878;28;20208;-82
2021/11/20 07:17:35;;;;;;;35.17;15.33;;;10.30;99.90;;;;;;4162105;28;20659;-82
2021/11/20 07:19:37;;;;;;;26.63;14.30;;;10.20;99.90;;;;;;4165129;28;20791;-83
2021/11/20 07:21:39;;;;;;;25.13;13.90;;;10.20;99.90;;;;;;4166015;28;20231;-83
2021/11/20 07:23:41;;;;;;;27.63;14.60;;;10.20;99.90;;;;;;4162422;28;20234;-83
2021/11/20 07:25:45;;;;;;;25.17;14.10;;;10.30;99.90;;;;;;4155454;28;20604;-82
2021/11/20 07:27:48;;;;;;;27.20;13.80;;;10.30;99.90;;;;;;4156156;28;20208;-82
2021/11/20 07:29:50;;;;;;;25.13;14.53;;;10.30;99.90;;;;;;4157571;28;20323;-81
2021/11/20 07:31:51;;;;;;;30.57;14.57;;;10.30;99.90;;;;;;4163695;28;20667;-81
2021/11/20 07:33:53;;;;;;;28.87;13.97;;;10.30;99.90;;;;;;4161226;28;20212;-81
2021/11/20 07:35:58;;;;;;;25.90;14.47;;;10.30;99.90;;;;;;4157304;28;20308;-81
2021/11/20 07:38:01;;;;;;;26.83;13.70;;;10.30;99.90;;;;;;4157699;28;20209;-80
2021/11/20 07:40:03;;;;;;;29.00;15.40;;;10.30;99.90;;;;;;4157909;28;20776;-82
2021/11/20 07:42:07;;;;;;;24.17;13.50;;;10.30;99.90;;;;;;4162432;28;20254;-82
2021/11/20 07:44:10;;;;;;;22.37;13.00;;;10.30;99.90;;;;;;4159793;28;20966;-85
2021/11/20 07:46:14;;;;;;;24.77;13.53;;;10.30;99.90;;;;;;4159819;28;20678;-77
2021/11/20 07:48:19;;;;;;;28.23;13.97;;;10.30;99.90;;;;;;4164720;28;20239;-82
2021/11/20 07:50:21;;;;;;;26.27;14.20;;;10.30;99.90;;;;;;4156851;28;20230;-81
2021/11/20 07:52:23;;;;;;;22.77;13.70;;;10.30;99.90;;;;;;4164369;28;20223;-80
2021/11/20 07:54:25;;;;;;;26.97;13.90;;;10.30;99.90;;;;;;4165285;28;20234;-81
2021/11/20 07:56:29;;;;;;;27.90;14.73;;;10.40;99.90;;;;;;4166888;28;20212;-80
2021/11/20 07:58:33;;;;;;;24.97;14.00;;;10.30;99.90;;;;;;4168068;28;20219;-81
2021/11/20 08:00:36;;;;;;;24.80;13.70;;;10.30;99.90;;;;;;4168760;28;20297;-81
2021/11/20 08:02:38;;;;;;;26.10;14.07;;;10.30;99.90;;;;;;4170418;28;20207;-81
2021/11/20 08:04:41;;;;;;;25.37;13.80;;;10.30;99.90;;;;;;4172262;28;20310;-80
2021/11/20 08:06:44;;;;;;;26.87;13.97;;;10.30;99.90;;;;;;4166054;28;20207;-81
2021/11/20 08:08:46;;;;;;;24.30;13.47;;;10.40;99.90;;;;;;4168502;28;20228;-81
2021/11/20 08:10:48;;;;;;;21.90;12.33;;;10.30;99.90;;;;;;4167104;28;20250;-86
2021/11/20 08:12:50;;;;;;;21.50;12.50;;;10.30;99.90;;;;;;4173722;28;20291;-82
2021/11/20 08:14:53;;;;;;;20.83;11.93;;;10.30;99.90;;;;;;4172868;28;20235;-83
2021/11/20 08:16:55;;;;;;;24.03;13.40;;;10.30;99.90;;;;;;4182955;28;20215;-84
2021/11/20 08:18:58;;;;;;;25.93;13.03;;;10.30;99.90;;;;;;4193725;22;20234;-77
2021/11/20 08:21:03;;;;;;;25.33;12.70;;;10.30;99.90;;;;;;4167618;28;20306;-78
2021/11/20 08:23:09;;;;;;;25.27;13.40;;;10.30;99.90;;;;;;4160069;28;20263;-76
2021/11/20 08:25:14;;;;;;;23.73;13.50;;;10.30;99.90;;;;;;4157203;28;20219;-75
2021/11/20 08:27:16;;;;;;;24.30;13.13;;;10.30;99.90;;;;;;4173223;28;20719;-74
2021/11/20 08:29:20;;;;;;;25.10;12.83;;;10.30;99.90;;;;;;4174495;28;20222;-77
2021/11/20 08:31:23;;;;;;;23.53;12.77;;;10.30;99.90;;;;;;4169011;28;20234;-74
2021/11/20 08:33:27;;;;;;;25.87;13.30;;;10.30;99.90;;;;;;4165573;28;20283;-75
2021/11/20 08:35:30;;;;;;;30.63;14.70;;;10.30;99.90;;;;;;4172572;28;20235;-78
2021/11/20 08:37:33;;;;;;;28.27;13.93;;;10.30;99.90;;;;;;4172044;28;20245;-75
2021/11/20 08:39:35;;;;;;;28.50;14.70;;;10.30;99.90;;;;;;4171536;28;20610;-76
2021/11/20 08:41:38;;;;;;;28.03;14.33;;;10.30;99.90;;;;;;4164376;28;20253;-77
2021/11/20 08:43:40;;;;;;;27.53;14.77;;;10.30;99.90;;;;;;4175776;28;20269;-76
2021/11/20 08:45:47;;;;;;;26.93;13.83;;;10.30;99.90;;;;;;4180254;28;20222;-77
2021/11/20 08:47:53;;;;;;;24.23;13.23;;;10.30;99.90;;;;;;4172542;28;20232;-76
2021/11/20 08:49:55;;;;;;;21.90;12.90;;;10.30;99.90;;;;;;4167552;28;20239;-75
2021/11/20 08:51:57;;;;;;;28.33;13.63;;;10.30;99.90;;;;;;4152160;28;20222;-75
2021/11/20 08:53:59;;;;;;;22.77;11.80;;;10.30;99.90;;;;;;4165612;28;20294;-75
2021/11/20 08:56:01;;;;;;;29.83;14.63;;;10.30;99.90;;;;;;4167181;28;20218;-77
2021/11/20 08:58:04;;;;;;;26.10;13.80;;;10.30;99.90;;;;;;4167397;28;20214;-76
2021/11/20 09:00:09;;;;;;;28.93;14.33;;;10.40;99.90;;;;;;4159826;28;20247;-78
2021/11/20 09:02:17;;;;;;;25.23;13.63;;;10.40;99.90;;;;;;4162367;28;20723;-75
2021/11/20 09:04:26;;;;;;;27.23;13.93;;;10.40;99.90;;;;;;4163585;28;20279;-78
2021/11/20 09:06:46;;;;;;;24.80;12.67;;;10.40;99.90;;;;;;4167179;28;20213;-77
2021/11/20 09:08:52;;;;;;;23.53;13.33;;;10.40;99.90;;;;;;4164482;28;20218;-80
2021/11/20 09:10:58;;;;;;;25.13;13.20;;;10.40;99.90;;;;;;4176953;28;20282;-76
2021/11/20 09:13:07;;;;;;;22.53;12.70;;;10.40;99.90;;;;;;4175671;28;20473;-77
2021/11/20 09:15:14;;;;;;;26.97;13.20;;;10.40;99.90;;;;;;4170008;28;20699;-78
2021/11/20 09:17:18;;;;;;;21.70;12.30;;;10.40;99.90;;;;;;4175349;28;20214;-78
2021/11/20 09:19:21;;;;;;;24.10;12.70;;;10.50;99.90;;;;;;4164223;28;20248;-77
2021/11/20 09:21:24;;;;;;;25.80;13.00;;;10.50;99.90;;;;;;4170461;28;20220;-77
2021/11/20 09:23:27;;;;;;;23.60;13.00;;;10.50;99.90;;;;;;4177556;28;20250;-80
2021/11/20 09:25:29;;;;;;;22.87;13.27;;;10.50;99.90;;;;;;4152006;28;20591;-77
2021/11/20 09:27:32;;;;;;;28.17;13.23;;;10.50;99.90;;;;;;4158735;28;20295;-80
2021/11/20 09:29:35;;;;;;;26.33;13.47;;;10.50;99.90;;;;;;4164620;28;20761;-76
2021/11/20 09:31:40;;;;;;;24.40;13.33;;;10.50;99.90;;;;;;4165427;28;20291;-75
2021/11/20 09:33:43;;;;;;;27.00;14.57;;;10.50;99.90;;;;;;4165447;28;20218;-75
2021/11/20 09:35:48;;;;;;;28.83;15.33;;;10.50;99.90;;;;;;4160097;28;20208;-75
2021/11/20 09:37:51;;;;;;;27.27;14.70;;;10.50;99.90;;;;;;4166281;28;20208;-75
2021/11/20 09:39:53;;;;;;;29.10;13.83;;;10.50;99.90;;;;;;4159916;28;20325;-77
2021/11/20 09:42:12;;;;;;;29.03;15.30;;;10.50;99.90;;;;;;4159738;28;20301;-76
2021/11/20 09:44:15;;;;;;;29.60;15.40;;;10.60;99.90;;;;;;4166343;28;20216;-76
2021/11/20 09:46:20;;;;;;;30.53;15.20;;;10.50;99.90;;;;;;4164581;28;20296;-76
2021/11/20 09:48:26;;;;;;;28.20;15.40;;;10.50;99.90;;;;;;4162125;28;20298;-76
2021/11/20 09:50:32;;;;;;;31.27;15.43;;;10.50;99.90;;;;;;4159959;28;20231;-75
2021/11/20 09:52:36;;;;;;;27.67;14.57;;;10.50;99.90;;;;;;4168105;28;20708;-75
2021/11/20 09:54:41;;;;;;;27.57;14.93;;;10.50;99.90;;;;;;4163848;28;20287;-74
2021/11/20 09:56:46;;;;;;;24.93;13.27;;;10.60;99.90;;;;;;4160099;28;20712;-74
2021/11/20 09:58:51;;;;;;;26.63;14.77;;;10.50;99.90;;;;;;4159725;28;20298;-75
2021/11/20 10:01:17;;;;;;;26.17;13.87;;;10.50;99.90;;;;;;4162563;28;20299;-75
2021/11/20 10:03:38;;;;;;;26.17;13.93;;;10.60;99.90;;;;;;4155584;28;20276;-76
2021/11/20 10:05:46;;;;;;;24.37;13.27;;;10.50;99.90;;;;;;4158281;28;20208;-75
2021/11/20 10:07:52;;;;;;;23.13;12.87;;;10.60;99.90;;;;;;4158021;28;20299;-76
2021/11/20 10:09:58;;;;;;;23.97;12.33;;;10.60;99.90;;;;;;4165025;28;20235;-75
2021/11/20 10:12:05;;;;;;;24.83;12.17;;;10.60;99.90;;;;;;4160263;28;20227;-75
2021/11/20 10:14:12;;;;;;;24.40;12.67;;;10.60;99.90;;;;;;4158511;28;20209;-77
2021/11/20 10:16:20;;;;;;;23.30;12.40;;;10.60;99.90;;;;;;4158492;28;20565;-75
2021/11/20 10:18:27;;;;;;;25.00;12.80;;;10.60;99.90;;;;;;4160901;28;20579;-75
2021/11/20 10:20:40;;;;;;;26.23;13.33;;;10.60;99.90;;;;;;4156931;28;20319;-77
2021/11/20 10:23:04;;;;;;;22.47;12.13;;;10.60;99.90;;;;;;4158894;28;20216;-75
2021/11/20 10:25:26;;;;;;;27.07;13.73;;;10.70;99.90;;;;;;4163610;28;20266;-75
2021/11/20 10:27:47;;;;;;;25.00;13.10;;;10.60;99.90;;;;;;4165929;28;20607;-75
2021/11/20 10:30:11;;;;;;;23.43;12.60;;;10.70;99.90;;;;;;4169684;28;20297;-77
2021/11/20 10:32:16;;;;;;;23.57;12.33;;;10.70;99.90;;;;;;4160642;28;20292;-75